Terminal Aerodrome Forecast
Issued by NWS Denver/Boulder, CO

Home | Current Version | Previous Version | Text Only | Print | Product List | Glossary On
Versions: 1 2 3 4 5 6 7 8 9 10 11 12 13 14 15 16 17 18 19 20 21 22 23 24 25 26 27 28 29 30 31 32 33 34 35 36 37 38 39 40 41 42 43 44
000
FTUS45 KBOU 281740
TAFDEN
TAF
KDEN 281740Z 2818/2924 12012KT 5SM -SN BR SCT010 BKN018 OVC025
     FM281900 15013KT P6SM VCSH BKN020 OVC035
     FM282300 11011KT 6SM -SHRA BR BKN020 OVC030
     FM290300 08008KT 3SM -RASN BR OVC018
      TEMPO 2906/2908 1 1/2SM -SN BR OVC012
     FM290800 05011KT 1SM -SN BR BKN005 OVC010
     FM291400 02010KT 1/2SM SN FG OVC005
     FM291800 01012KT 1 1/2SM -SNRA BR OVC008
     FM292300 03013G18KT 2SM -SN BR OVC014=

USA.gov is the U.S. government's official web portal to all federal, state and local government web resources and services.